Time;durP1;ratioP1;P1;durP2;ratioP2;P2;SDS_P1;SDS_P2;PMS_P1;PMS_P2;Temp;Humidity;BMP_temperature;BMP_pressure;BME280_temperature;BME280_humidity;BME280_pressure;Samples;Min_cycle;Max_cycle;Signal;HPM_P1;HPM_P2
2022/08/18 00:00:12;;;;;;;19.63;5.53;;;19.10;99.90;;;;;;4993686;28;20057;-80
2022/08/18 00:03:06;;;;;;;14.32;4.55;;;19.20;99.90;;;;;;5011458;28;20466;-79
2022/08/18 00:05:53;;;;;;;13.40;6.15;;;19.10;99.90;;;;;;4996981;28;20116;-79
2022/08/18 00:08:39;;;;;;;10.90;4.68;;;19.20;99.90;;;;;;5011347;28;20061;-80
2022/08/18 00:11:26;;;;;;;14.00;5.22;;;19.10;99.90;;;;;;4994020;28;20474;-79
2022/08/18 00:14:16;;;;;;;15.23;4.72;;;19.10;99.90;;;;;;4992413;28;20054;-78
2022/08/18 00:17:02;;;;;;;17.27;5.70;;;19.00;99.90;;;;;;5011287;28;20058;-78
2022/08/18 00:19:49;;;;;;;12.07;5.20;;;19.10;99.90;;;;;;5010777;28;20137;-78
2022/08/18 00:22:38;;;;;;;11.75;5.22;;;19.10;99.90;;;;;;5009447;28;20046;-78
2022/08/18 00:25:24;;;;;;;13.38;5.88;;;19.00;99.90;;;;;;4993343;28;20054;-79
2022/08/18 00:28:12;;;;;;;12.63;4.68;;;19.00;99.90;;;;;;5010797;28;20050;-79
2022/08/18 00:30:58;;;;;;;15.10;5.63;;;19.00;99.90;;;;;;4996519;28;20092;-78
2022/08/18 00:33:45;;;;;;;9.30;5.20;;;19.00;99.90;;;;;;4992892;28;20494;-78
2022/08/18 00:36:31;;;;;;;11.13;4.10;;;18.90;99.90;;;;;;5009920;28;20061;-79
2022/08/18 00:39:20;;;;;;;13.38;5.75;;;18.90;99.90;;;;;;4993127;28;20514;-79
2022/08/18 00:42:19;;;;;;;13.90;5.07;;;18.90;99.90;;;;;;5010140;28;20125;-80
2022/08/18 00:45:06;;;;;;;15.25;5.72;;;18.90;99.90;;;;;;5008780;28;20089;-80
2022/08/18 00:47:53;;;;;;;11.15;4.82;;;18.90;99.90;;;;;;5009693;28;20077;-80
2022/08/18 00:50:52;;;;;;;19.50;5.35;;;18.90;99.90;;;;;;5010164;28;20050;-78
2022/08/18 00:53:51;;;;;;;15.23;5.10;;;18.90;99.90;;;;;;5009537;28;20137;-79
2022/08/18 00:56:43;;;;;;;11.68;5.28;;;18.80;99.90;;;;;;5009613;28;20057;-81
2022/08/18 00:59:36;;;;;;;14.40;5.53;;;18.90;99.90;;;;;;4995208;28;20052;-80
2022/08/18 01:02:30;;;;;;;12.50;5.22;;;18.80;99.90;;;;;;5009816;28;20493;-79
2022/08/18 01:05:39;;;;;;;11.35;5.57;;;18.80;99.90;;;;;;4980188;28;20481;-79
2022/08/18 01:08:26;;;;;;;12.32;5.97;;;18.90;99.90;;;;;;4992389;28;20468;-79
2022/08/18 01:11:12;;;;;;;12.57;5.53;;;18.80;99.90;;;;;;4991709;28;20046;-79
2022/08/18 01:13:59;;;;;;;13.00;5.00;;;18.90;99.90;;;;;;5010150;28;20068;-79
2022/08/18 01:22:56;;;;;;;17.50;5.88;;;18.90;99.90;;;;;;5010731;28;20494;-78
2022/08/18 01:25:59;;;;;;;13.55;5.65;;;18.90;99.90;;;;;;4992651;28;20159;-79
2022/08/18 01:28:48;;;;;;;12.30;5.32;;;18.90;99.90;;;;;;4999425;28;20053;-78
2022/08/18 01:31:40;;;;;;;11.65;6.10;;;18.90;99.90;;;;;;4996336;28;20089;-78
2022/08/18 01:34:27;;;;;;;16.23;5.35;;;18.90;99.90;;;;;;5010821;28;20050;-78
2022/08/18 01:37:19;;;;;;;9.50;4.68;;;18.90;99.90;;;;;;5010185;28;20049;-77
2022/08/18 01:40:07;;;;;;;10.13;6.13;;;18.90;99.90;;;;;;5009704;28;20085;-78
2022/08/18 01:42:55;;;;;;;12.38;5.45;;;18.90;99.90;;;;;;5011337;28;20050;-77
2022/08/18 01:45:42;;;;;;;6.57;4.80;;;18.90;99.90;;;;;;4992882;28;20046;-78
2022/08/18 01:48:31;;;;;;;16.17;5.18;;;18.90;99.90;;;;;;4992372;28;20050;-79
2022/08/18 01:51:20;;;;;;;9.60;4.93;;;19.00;99.90;;;;;;5010544;28;20140;-80
2022/08/18 01:54:09;;;;;;;13.88;5.60;;;18.90;99.90;;;;;;4999258;28;20046;-78
2022/08/18 01:56:55;;;;;;;11.95;4.80;;;18.90;99.90;;;;;;5013972;28;20054;-78
2022/08/18 01:59:42;;;;;;;15.43;4.38;;;18.90;99.90;;;;;;4999799;28;20046;-78
2022/08/18 02:02:32;;;;;;;14.07;4.80;;;18.90;99.90;;;;;;4996758;28;20132;-78
2022/08/18 02:05:30;;;;;;;13.93;4.95;;;18.90;99.90;;;;;;4995123;28;20049;-78
2022/08/18 02:08:17;;;;;;;14.80;4.90;;;18.90;99.90;;;;;;4996173;28;20104;-79
2022/08/18 02:11:04;;;;;;;13.18;5.15;;;19.00;99.90;;;;;;4994067;28;20078;-77
2022/08/18 02:13:50;;;;;;;10.60;5.40;;;19.00;99.90;;;;;;4976199;28;20090;-78
2022/08/18 02:16:36;;;;;;;9.95;4.00;;;19.00;99.90;;;;;;4993901;28;20150;-79
2022/08/18 02:19:23;;;;;;;12.52;4.80;;;19.00;99.90;;;;;;4994120;28;20073;-79
2022/08/18 02:22:12;;;;;;;12.27;4.45;;;19.00;99.90;;;;;;4992960;28;20125;-76
2022/08/18 02:24:58;;;;;;;8.77;4.70;;;19.00;99.90;;;;;;4963238;28;20050;-77
2022/08/18 02:27:46;;;;;;;8.48;4.90;;;19.00;99.90;;;;;;4979726;28;20192;-79
2022/08/18 02:30:33;;;;;;;8.23;4.65;;;19.00;99.90;;;;;;4976072;28;20054;-77
2022/08/18 02:33:20;;;;;;;9.77;5.13;;;19.00;99.90;;;;;;4992739;28;20490;-79
2022/08/18 02:36:07;;;;;;;11.82;5.63;;;18.90;99.90;;;;;;4975936;28;20481;-78
2022/08/18 02:38:53;;;;;;;11.18;4.60;;;18.90;99.90;;;;;;4991606;28;20046;-77
2022/08/18 02:41:42;;;;;;;15.38;5.63;;;18.90;99.90;;;;;;4975081;28;20053;-80
2022/08/18 02:44:30;;;;;;;10.32;4.65;;;18.90;99.90;;;;;;4975729;28;20094;-78
2022/08/18 02:47:20;;;;;;;11.15;4.65;;;18.90;99.90;;;;;;4963503;28;20141;-78
2022/08/18 02:50:07;;;;;;;13.15;3.90;;;18.90;99.90;;;;;;4976126;28;20101;-78
2022/08/18 02:52:53;;;;;;;11.90;4.40;;;18.90;99.90;;;;;;4993863;28;20064;-79
2022/08/18 02:55:39;;;;;;;8.82;4.53;;;18.90;99.90;;;;;;4975456;28;20050;-79
2022/08/18 02:58:25;;;;;;;12.25;3.75;;;18.90;99.90;;;;;;4975157;28;20383;-78
2022/08/18 03:01:11;;;;;;;11.80;3.85;;;18.90;99.90;;;;;;4993354;28;20046;-77
2022/08/18 03:03:59;;;;;;;11.32;4.68;;;18.90;99.90;;;;;;4991361;28;20054;-78
2022/08/18 03:06:46;;;;;;;12.93;4.72;;;18.90;99.90;;;;;;4974900;28;20050;-80
2022/08/18 03:09:33;;;;;;;11.70;4.82;;;18.90;99.90;;;;;;4962808;28;20046;-76
2022/08/18 03:12:19;;;;;;;14.50;4.95;;;18.80;99.90;;;;;;4974496;28;20059;-78
2022/08/18 03:15:06;;;;;;;10.13;4.40;;;18.80;99.90;;;;;;4991999;28;20050;-77
2022/08/18 03:17:52;;;;;;;10.43;5.35;;;18.70;99.90;;;;;;4975879;28;20525;-79
2022/08/18 03:20:38;;;;;;;12.57;4.80;;;18.70;99.90;;;;;;4975605;28;20069;-78
2022/08/18 03:23:25;;;;;;;11.48;4.70;;;18.70;99.90;;;;;;4993508;28;20064;-77
2022/08/18 03:26:13;;;;;;;11.65;4.68;;;18.70;99.90;;;;;;4975641;28;20137;-78
2022/08/18 03:29:00;;;;;;;12.40;5.00;;;18.70;99.90;;;;;;4992248;28;20137;-77
2022/08/18 03:31:47;;;;;;;8.55;4.10;;;18.70;99.90;;;;;;4993124;28;20051;-78
2022/08/18 03:34:34;;;;;;;9.10;4.55;;;18.70;99.90;;;;;;4975496;28;20573;-76
2022/08/18 03:37:20;;;;;;;12.00;4.18;;;18.70;99.90;;;;;;4974736;28;20052;-78
2022/08/18 03:40:06;;;;;;;13.48;4.93;;;18.70;99.90;;;;;;4991731;28;20137;-79
2022/08/18 03:42:53;;;;;;;13.95;4.47;;;18.70;99.90;;;;;;4991336;28;20530;-79
2022/08/18 03:45:39;;;;;;;14.88;5.07;;;18.70;99.90;;;;;;4992953;28;20078;-77
2022/08/18 03:48:25;;;;;;;10.82;4.35;;;18.70;99.90;;;;;;4974622;28;20140;-78
2022/08/18 03:51:17;;;;;;;12.98;4.78;;;18.70;99.90;;;;;;4992616;28;20093;-77
2022/08/18 03:54:05;;;;;;;15.50;5.18;;;18.70;99.90;;;;;;4961054;28;20050;-77
2022/08/18 03:56:54;;;;;;;17.45;5.30;;;18.70;99.90;;;;;;4974113;28;20058;-79
2022/08/18 03:59:42;;;;;;;14.65;5.90;;;18.70;99.90;;;;;;4978180;28;20046;-78
2022/08/18 04:02:28;;;;;;;16.95;5.47;;;18.70;99.90;;;;;;4991484;28;20065;-79
2022/08/18 04:05:14;;;;;;;9.57;4.55;;;18.70;99.90;;;;;;4974408;28;20137;-77
2022/08/18 04:08:03;;;;;;;15.98;4.45;;;18.70;99.90;;;;;;4974210;28;20050;-76
2022/08/18 04:10:49;;;;;;;14.82;5.07;;;18.70;99.90;;;;;;4991484;28;20399;-78
2022/08/18 04:13:36;;;;;;;13.70;4.28;;;18.70;99.90;;;;;;4974008;28;20529;-77
2022/08/18 04:16:23;;;;;;;9.45;4.28;;;18.70;99.90;;;;;;4990737;28;20596;-78
2022/08/18 04:19:12;;;;;;;11.13;4.60;;;18.70;99.90;;;;;;4973300;28;20050;-76
2022/08/18 04:21:58;;;;;;;19.80;5.93;;;18.70;99.90;;;;;;4973736;28;20077;-78
2022/08/18 04:24:45;;;;;;;12.02;4.85;;;18.70;99.90;;;;;;4991085;28;20401;-79
2022/08/18 04:27:31;;;;;;;9.65;4.00;;;18.70;99.90;;;;;;4990976;28;20061;-76
2022/08/18 04:30:17;;;;;;;12.88;4.30;;;18.70;99.90;;;;;;4977330;28;20054;-78
2022/08/18 04:33:05;;;;;;;11.65;4.90;;;18.70;99.90;;;;;;4973655;28;20046;-76
2022/08/18 04:35:52;;;;;;;12.88;5.15;;;18.70;99.90;;;;;;4991673;28;20149;-77
2022/08/18 04:38:42;;;;;;;14.30;5.13;;;18.70;99.90;;;;;;4972967;28;20050;-77
2022/08/18 04:41:29;;;;;;;10.50;5.07;;;18.70;99.90;;;;;;4991902;28;20046;-76
2022/08/18 04:44:16;;;;;;;16.02;5.65;;;18.70;99.90;;;;;;4991387;28;20046;-78
2022/08/18 04:47:04;;;;;;;19.20;5.10;;;18.70;99.90;;;;;;4977182;28;20058;-77
2022/08/18 04:49:50;;;;;;;9.85;4.90;;;18.70;99.90;;;;;;4991060;28;20261;-77
2022/08/18 04:55:52;;;;;;;13.50;4.78;;;18.80;99.90;;;;;;4990634;28;20495;-79
2022/08/18 04:58:38;;;;;;;18.27;6.30;;;18.70;99.90;;;;;;4990754;28;20042;-79
2022/08/18 05:01:28;;;;;;;14.02;5.32;;;18.80;99.90;;;;;;4990892;28;20439;-79
2022/08/18 05:04:16;;;;;;;17.35;5.63;;;18.80;99.90;;;;;;4973531;28;20414;-78
2022/08/18 05:07:07;;;;;;;17.95;5.78;;;18.80;99.90;;;;;;4960000;28;20050;-77
2022/08/18 05:09:54;;;;;;;12.13;4.63;;;18.80;99.90;;;;;;4991260;28;20046;-78
2022/08/18 05:12:41;;;;;;;16.48;4.80;;;18.80;99.90;;;;;;4989916;28;20138;-78
2022/08/18 05:15:27;;;;;;;14.05;4.53;;;18.80;99.90;;;;;;4997040;28;20511;-79
2022/08/18 05:18:13;;;;;;;17.50;6.32;;;18.70;99.90;;;;;;5010159;28;20060;-78
2022/08/18 05:21:00;;;;;;;16.10;4.05;;;18.70;99.90;;;;;;4997108;28;20049;-77
2022/08/18 05:23:47;;;;;;;13.32;5.13;;;18.70;99.90;;;;;;5010844;28;20060;-79
2022/08/18 05:26:35;;;;;;;16.63;4.63;;;18.70;99.90;;;;;;5011482;28;20053;-78
2022/08/18 05:29:22;;;;;;;14.02;3.53;;;18.70;99.90;;;;;;5014280;28;20058;-78
2022/08/18 05:32:09;;;;;;;11.32;3.83;;;18.70;99.90;;;;;;5012512;28;20054;-78
2022/08/18 05:34:55;;;;;;;15.55;3.88;;;18.70;99.90;;;;;;5013831;28;20050;-76
2022/08/18 05:38:02;;;;;;;10.60;3.08;;;18.70;99.90;;;;;;5014530;28;20077;-77
2022/08/18 05:41:09;;;;;;;15.15;4.15;;;18.70;99.90;;;;;;5012978;28;20054;-76
2022/08/18 05:43:56;;;;;;;13.63;3.70;;;18.60;99.90;;;;;;5012214;28;20404;-76
2022/08/18 05:46:44;;;;;;;12.02;3.55;;;18.70;99.90;;;;;;4995784;28;20108;-76
2022/08/18 05:49:32;;;;;;;10.88;2.33;;;18.60;99.90;;;;;;4996024;28;20089;-76
2022/08/18 05:52:22;;;;;;;8.35;2.63;;;18.60;99.90;;;;;;5013382;28;20053;-75
2022/08/18 05:58:23;;;;;;;7.47;2.13;;;18.60;99.90;;;;;;4996092;28;20054;-78
2022/08/18 06:01:17;;;;;;;9.85;2.88;;;18.60;99.90;;;;;;4996727;28;20133;-77
2022/08/18 06:04:13;;;;;;;11.02;2.58;;;18.60;99.90;;;;;;4995711;28;20058;-78
2022/08/18 06:07:06;;;;;;;9.45;2.42;;;18.60;99.90;;;;;;5013372;28;20050;-78
2022/08/18 06:09:54;;;;;;;9.25;1.60;;;18.70;99.90;;;;;;5014321;28;20045;-78
2022/08/18 06:12:44;;;;;;;6.07;1.80;;;18.60;99.90;;;;;;4996119;28;20044;-78
2022/08/18 06:15:44;;;;;;;5.43;1.63;;;18.60;99.90;;;;;;4983417;28;20133;-79
2022/08/18 06:18:49;;;;;;;19.73;2.13;;;18.60;99.90;;;;;;5012814;28;20049;-79
2022/08/18 06:21:35;;;;;;;7.80;1.85;;;18.60;99.90;;;;;;4995564;28;20085;-78
2022/08/18 06:24:51;;;;;;;8.20;1.80;;;18.70;99.90;;;;;;4981720;28;20046;-78
2022/08/18 06:28:12;;;;;;;6.15;1.40;;;18.60;99.90;;;;;;4982723;28;20042;-78
2022/08/18 06:31:11;;;;;;;4.40;1.30;;;18.70;99.90;;;;;;5013130;28;20092;-76
2022/08/18 06:34:50;;;;;;;6.65;1.90;;;18.70;99.90;;;;;;4995508;28;20056;-77
2022/08/18 06:41:32;;;;;;;11.50;1.80;;;18.80;99.90;;;;;;5012156;28;20371;-77
2022/08/18 06:44:28;;;;;;;10.88;2.20;;;18.90;99.90;;;;;;5012645;28;20506;-79
2022/08/18 06:47:27;;;;;;;;;;;19.00;99.90;;;;;;5012483;28;20132;-78
2022/08/18 06:50:42;;;;;;;4.00;1.30;;;19.00;99.90;;;;;;5012865;28;19932;-80
2022/08/18 06:53:52;;;;;;;5.05;1.42;;;19.20;99.90;;;;;;5013497;28;20115;-79
2022/08/18 06:56:38;;;;;;;11.05;1.75;;;19.20;99.90;;;;;;4994423;28;20572;-77
2022/08/18 06:59:27;;;;;;;7.35;1.65;;;19.30;99.90;;;;;;4997971;28;20077;-79
2022/08/18 07:02:36;;;;;;;6.78;1.40;;;19.50;99.90;;;;;;4993950;28;20688;-78
2022/08/18 07:05:29;;;;;;;8.70;2.28;;;19.70;99.90;;;;;;4995235;28;20054;-78
2022/08/18 07:08:40;;;;;;;14.20;3.05;;;20.00;99.90;;;;;;4994260;28;20056;-78
2022/08/18 07:11:29;;;;;;;13.82;3.08;;;20.00;99.90;;;;;;5011311;28;20141;-79
2022/08/18 07:14:24;;;;;;;13.00;2.60;;;19.90;99.90;;;;;;5011714;28;20046;-79
2022/08/18 07:17:21;;;;;;;12.93;2.65;;;20.00;99.90;;;;;;4994101;28;20437;-79
2022/08/18 07:20:20;;;;;;;9.52;3.13;;;20.10;99.90;;;;;;5012590;28;20489;-79
2022/08/18 07:23:08;;;;;;;12.18;2.53;;;20.20;99.90;;;;;;4993621;28;20046;-79
2022/08/18 07:26:07;;;;;;;8.38;2.13;;;20.40;99.90;;;;;;5010214;28;20093;-79
2022/08/18 07:28:53;;;;;;;8.13;2.20;;;20.50;99.90;;;;;;5011093;28;20057;-78
2022/08/18 07:31:48;;;;;;;8.05;2.17;;;20.30;99.90;;;;;;4993764;28;20417;-78
2022/08/18 07:34:40;;;;;;;8.27;1.88;;;20.30;99.90;;;;;;4993788;28;20115;-78
2022/08/18 07:37:44;;;;;;;12.00;2.42;;;20.20;99.90;;;;;;5012297;28;20121;-77
2022/08/18 07:40:49;;;;;;;9.65;2.10;;;20.20;99.90;;;;;;5010954;28;20080;-79
2022/08/18 07:43:36;;;;;;;7.88;1.83;;;20.30;99.90;;;;;;5012284;28;20401;-78
2022/08/18 07:46:25;;;;;;;4.15;1.50;;;20.30;99.90;;;;;;4994923;28;20100;-79
2022/08/18 07:49:18;;;;;;;8.73;1.50;;;20.30;99.90;;;;;;5010308;28;20070;-80
2022/08/18 07:52:21;;;;;;;6.10;1.60;;;20.30;99.90;;;;;;5011482;28;20049;-78
2022/08/18 07:55:31;;;;;;;11.52;2.50;;;20.40;99.90;;;;;;5010881;28;20049;-80
2022/08/18 07:58:31;;;;;;;9.82;2.58;;;20.60;99.90;;;;;;5012117;28;20049;-80
2022/08/18 08:01:17;;;;;;;10.52;2.13;;;20.50;99.90;;;;;;4993080;28;20081;-79
2022/08/18 08:04:31;;;;;;;8.20;1.92;;;20.50;99.90;;;;;;5011430;28;20104;-80
2022/08/18 08:07:26;;;;;;;9.13;2.05;;;20.50;99.90;;;;;;4967786;28;20140;-80
2022/08/18 08:10:21;;;;;;;10.32;2.13;;;20.40;99.90;;;;;;4993366;28;20133;-78
2022/08/18 08:13:07;;;;;;;5.38;1.10;;;20.40;99.90;;;;;;5011227;28;20458;-79
2022/08/18 08:16:36;;;;;;;7.20;1.50;;;20.50;99.90;;;;;;5010564;28;20064;-80
2022/08/18 08:19:58;;;;;;;6.25;1.48;;;20.60;99.90;;;;;;4993646;28;20058;-80
2022/08/18 08:22:59;;;;;;;5.55;1.50;;;20.80;99.90;;;;;;5010456;28;20042;-80
2022/08/18 08:26:03;;;;;;;5.15;1.60;;;20.70;99.90;;;;;;4996258;28;20104;-80
2022/08/18 08:29:01;;;;;;;4.63;1.42;;;20.80;99.90;;;;;;5009882;28;20166;-79
2022/08/18 08:31:49;;;;;;;7.40;1.55;;;20.80;99.90;;;;;;5010550;28;20184;-78
2022/08/18 08:34:56;;;;;;;3.83;1.40;;;20.90;99.90;;;;;;4992394;28;20523;-80
2022/08/18 08:37:54;;;;;;;6.50;1.25;;;21.00;99.90;;;;;;5010732;28;20077;-80
2022/08/18 08:40:57;;;;;;;3.85;1.30;;;21.20;99.90;;;;;;5010422;28;20143;-80
2022/08/18 08:44:01;;;;;;;4.88;1.40;;;21.30;99.90;;;;;;4992378;28;20060;-80
2022/08/18 08:46:54;;;;;;;4.93;1.70;;;21.40;99.90;;;;;;4997726;28;20046;-80
2022/08/18 08:49:46;;;;;;;7.05;1.60;;;21.40;99.90;;;;;;5010466;28;20151;-80
2022/08/18 08:52:46;;;;;;;5.13;1.17;;;21.60;99.90;;;;;;4996686;28;20053;-80
2022/08/18 08:55:42;;;;;;;3.83;1.13;;;21.90;99.90;;;;;;5010945;28;20089;-79
2022/08/18 08:58:32;;;;;;;4.05;1.00;;;22.10;99.90;;;;;;5010005;28;20054;-81
2022/08/18 09:01:27;;;;;;;4.45;1.40;;;21.90;99.90;;;;;;5011572;28;20395;-80
2022/08/18 09:04:28;;;;;;;4.97;1.38;;;22.00;99.90;;;;;;5014794;28;20046;-81
2022/08/18 09:07:34;;;;;;;8.55;2.40;;;22.00;99.90;;;;;;5014507;28;20061;-81
2022/08/18 09:10:50;;;;;;;5.38;1.00;;;22.10;99.90;;;;;;5013997;28;20502;-80
2022/08/18 09:14:06;;;;;;;6.85;1.30;;;22.30;99.90;;;;;;5014243;28;20057;-78
2022/08/18 09:17:37;;;;;;;5.53;1.00;;;22.40;99.90;;;;;;4995739;28;20081;-79
2022/08/18 09:20:33;;;;;;;4.90;1.20;;;22.40;99.90;;;;;;5013919;28;20045;-78
2022/08/18 09:23:26;;;;;;;3.75;1.10;;;22.40;99.90;;;;;;5014261;28;20133;-79
2022/08/18 09:26:39;;;;;;;8.23;1.92;;;22.60;99.90;;;;;;4997001;28;20069;-79
2022/08/18 09:29:51;;;;;;;4.65;1.00;;;22.60;99.90;;;;;;5014047;28;20042;-79
2022/08/18 09:33:13;;;;;;;3.90;1.23;;;22.50;99.90;;;;;;4996009;28;20050;-79
2022/08/18 09:36:37;;;;;;;7.32;1.30;;;22.60;99.90;;;;;;5014798;28;20054;-80
2022/08/18 09:42:53;;;;;;;3.40;1.02;;;22.90;99.90;;;;;;5015139;28;20057;-79
2022/08/18 09:45:45;;;;;;;4.57;1.00;;;23.00;99.90;;;;;;4996176;28;20093;-79
2022/08/18 09:48:37;;;;;;;4.07;1.15;;;23.10;99.90;;;;;;4996749;28;20565;-81
2022/08/18 09:51:35;;;;;;;4.13;0.85;;;23.00;99.90;;;;;;4999729;28;20046;-79
2022/08/18 09:54:32;;;;;;;4.82;1.25;;;23.10;99.90;;;;;;4996958;28;20115;-81
2022/08/18 09:57:23;;;;;;;5.38;1.15;;;23.40;99.90;;;;;;4996762;28;20053;-79
2022/08/18 10:00:12;;;;;;;4.45;1.00;;;23.90;99.90;;;;;;5013787;28;20041;-79
2022/08/18 10:03:10;;;;;;;5.13;1.75;;;24.10;99.90;;;;;;5013867;28;20061;-80
2022/08/18 10:06:05;;;;;;;4.22;1.38;;;24.30;99.90;;;;;;5013916;28;20050;-80
2022/08/18 10:09:07;;;;;;;5.57;1.20;;;24.40;99.90;;;;;;4996237;28;20050;-80
2022/08/18 10:12:04;;;;;;;4.78;1.25;;;24.50;99.90;;;;;;5000182;28;20133;-80
2022/08/18 10:15:18;;;;;;;2.63;1.00;;;24.60;99.90;;;;;;4999638;28;20073;-80
2022/08/18 10:18:12;;;;;;;3.67;1.00;;;24.50;99.90;;;;;;5012749;28;20146;-80
2022/08/18 10:21:20;;;;;;;2.85;0.98;;;24.30;99.90;;;;;;4981579;28;20054;-79
2022/08/18 10:24:10;;;;;;;3.88;0.80;;;24.10;99.90;;;;;;5012859;28;20042;-80
2022/08/18 10:26:56;;;;;;;3.63;1.10;;;24.20;99.90;;;;;;5012481;28;20046;-80
2022/08/18 10:29:46;;;;;;;2.85;0.98;;;24.30;99.90;;;;;;5012522;28;20116;-81
2022/08/18 10:32:43;;;;;;;2.67;1.00;;;24.30;99.90;;;;;;5013542;28;20085;-80
2022/08/18 10:35:35;;;;;;;4.25;0.93;;;24.30;99.90;;;;;;4984770;28;20409;-80
2022/08/18 10:38:27;;;;;;;2.72;0.90;;;24.30;99.90;;;;;;5013905;28;20410;-80
2022/08/18 10:41:24;;;;;;;4.50;0.95;;;24.10;99.90;;;;;;5012986;28;20061;-80
2022/08/18 10:44:15;;;;;;;3.80;1.00;;;24.40;99.90;;;;;;5012489;28;20073;-80
2022/08/18 10:47:02;;;;;;;5.40;1.20;;;24.80;99.90;;;;;;4997966;28;20056;-80
2022/08/18 10:49:49;;;;;;;3.55;0.93;;;25.40;99.90;;;;;;5011675;28;20050;-80
2022/08/18 10:52:43;;;;;;;3.10;1.00;;;25.60;99.90;;;;;;4981592;28;20097;-80
2022/08/18 10:55:45;;;;;;;5.13;1.65;;;26.10;99.90;;;;;;5012921;28;20164;-80
2022/08/18 10:58:49;;;;;;;4.55;1.50;;;26.50;99.90;;;;;;5012783;28;20077;-80
2022/08/18 11:02:04;;;;;;;3.55;0.88;;;26.90;99.30;;;;;;4995730;28;20061;-80
2022/08/18 11:04:52;;;;;;;2.88;1.00;;;26.50;97.40;;;;;;5012318;28;20053;-80
2022/08/18 11:07:42;;;;;;;3.75;1.15;;;26.50;99.90;;;;;;5011816;28;20112;-80
2022/08/18 11:10:47;;;;;;;2.17;0.98;;;26.90;99.50;;;;;;5011208;28;20060;-81
2022/08/18 11:14:02;;;;;;;3.85;1.20;;;27.20;97.90;;;;;;4992467;28;20402;-78
2022/08/18 11:17:21;;;;;;;3.13;0.90;;;27.30;97.40;;;;;;4993122;28;20054;-79
2022/08/18 11:20:10;;;;;;;3.22;1.27;;;27.50;96.20;;;;;;4978464;28;20053;-80
2022/08/18 11:23:00;;;;;;;3.05;1.45;;;27.60;97.10;;;;;;4993380;28;20090;-80
2022/08/18 11:25:46;;;;;;;5.20;0.88;;;27.70;96.30;;;;;;4992432;28;20145;-80
2022/08/18 11:28:32;;;;;;;2.17;0.90;;;28.30;97.10;;;;;;4992440;28;20046;-80
2022/08/18 11:31:19;;;;;;;3.53;0.85;;;28.30;96.70;;;;;;4993740;28;20042;-80
2022/08/18 11:34:10;;;;;;;3.35;1.10;;;28.20;96.00;;;;;;4990743;28;20046;-80
2022/08/18 11:36:59;;;;;;;3.67;0.90;;;28.10;96.00;;;;;;4992787;28;20058;-80
2022/08/18 11:39:52;;;;;;;4.20;1.52;;;28.00;96.20;;;;;;4991757;28;20051;-80
2022/08/18 11:42:46;;;;;;;2.78;1.23;;;27.80;96.10;;;;;;4992468;28;20039;-79
2022/08/18 11:45:51;;;;;;;2.90;1.00;;;27.50;95.70;;;;;;4977716;28;20427;-80
2022/08/18 11:48:44;;;;;;;;;;;27.40;96.20;;;;;;4971675;28;20050;-80
2022/08/18 11:51:32;;;;;;;4.00;1.38;;;27.30;95.50;;;;;;4992111;28;20020;-80
2022/08/18 11:54:21;;;;;;;3.70;1.13;;;27.50;95.80;;;;;;4992598;28;20510;-80
2022/08/18 11:57:30;;;;;;;6.95;1.00;;;27.80;95.80;;;;;;4975061;28;20128;-81
2022/08/18 12:00:52;;;;;;;3.00;1.13;;;28.50;95.40;;;;;;4975303;28;20053;-79
2022/08/18 12:03:47;;;;;;;4.03;1.10;;;28.50;93.70;;;;;;4976857;28;20050;-80
2022/08/18 12:06:35;;;;;;;5.00;0.90;;;27.90;94.60;;;;;;4991756;28;20053;-80
2022/08/18 12:09:32;;;;;;;6.45;1.02;;;28.10;95.90;;;;;;4973326;28;20057;-80
2022/08/18 12:12:29;;;;;;;3.05;1.20;;;28.50;93.80;;;;;;4991476;28;20412;-79
2022/08/18 12:15:18;;;;;;;3.55;1.02;;;28.80;94.00;;;;;;4993135;28;20050;-80
2022/08/18 12:18:04;;;;;;;2.97;0.93;;;29.10;94.20;;;;;;4980431;28;20053;-80
2022/08/18 12:20:51;;;;;;;2.97;0.80;;;29.80;93.30;;;;;;5011888;28;20558;-80
2022/08/18 12:23:40;;;;;;;2.55;1.15;;;30.20;92.60;;;;;;4979593;28;20050;-80
2022/08/18 12:26:26;;;;;;;4.03;1.13;;;30.70;91.90;;;;;;5010983;28;20127;-79
2022/08/18 12:29:13;;;;;;;3.75;1.23;;;31.00;92.30;;;;;;5010778;28;20085;-80
2022/08/18 12:31:59;;;;;;;3.28;1.10;;;30.60;91.80;;;;;;4997030;28;20046;-80
2022/08/18 12:34:45;;;;;;;6.03;1.00;;;30.30;91.80;;;;;;5012108;28;20045;-79
2022/08/18 12:37:32;;;;;;;2.55;0.75;;;30.40;91.60;;;;;;5011317;28;20045;-80
2022/08/18 12:40:18;;;;;;;3.33;0.90;;;30.70;91.50;;;;;;4993169;28;20050;-80
2022/08/18 12:43:05;;;;;;;3.08;1.00;;;30.40;90.70;;;;;;4994461;28;20184;-80
2022/08/18 12:45:51;;;;;;;4.78;1.25;;;30.70;91.10;;;;;;4997784;28;20042;-81
2022/08/18 12:48:38;;;;;;;3.97;1.08;;;30.80;90.10;;;;;;4997042;28;20046;-81
2022/08/18 12:51:24;;;;;;;4.97;1.27;;;30.80;91.10;;;;;;5011296;28;20042;-80
2022/08/18 12:54:11;;;;;;;3.85;0.90;;;31.40;90.60;;;;;;5010235;28;20049;-80
2022/08/18 12:56:58;;;;;;;3.03;0.93;;;31.60;88.50;;;;;;5011594;28;20498;-80
2022/08/18 12:59:45;;;;;;;5.85;2.00;;;31.70;89.20;;;;;;4979376;28;20406;-81
2022/08/18 13:02:31;;;;;;;3.70;1.02;;;32.30;87.40;;;;;;5010848;28;20134;-80
2022/08/18 13:05:18;;;;;;;4.07;1.17;;;32.50;86.70;;;;;;5012061;28;20046;-81
2022/08/18 13:08:12;;;;;;;2.40;0.77;;;32.30;86.70;;;;;;4993539;28;20046;-80
2022/08/18 13:10:59;;;;;;;3.63;0.90;;;32.00;84.70;;;;;;4996379;28;20058;-81
2022/08/18 13:13:45;;;;;;;3.72;0.93;;;31.50;87.10;;;;;;4994429;28;20045;-80
2022/08/18 13:16:35;;;;;;;5.30;1.08;;;31.50;88.80;;;;;;4996186;28;20057;-81
2022/08/18 13:19:21;;;;;;;3.65;1.00;;;32.50;86.90;;;;;;5011349;28;20089;-80
2022/08/18 13:22:08;;;;;;;3.08;0.95;;;32.80;85.90;;;;;;4994289;28;20414;-81
2022/08/18 13:24:54;;;;;;;2.38;0.80;;;32.50;83.70;;;;;;4992866;28;20161;-80
2022/08/18 13:27:40;;;;;;;2.10;0.68;;;31.80;83.00;;;;;;5011094;28;20038;-81
2022/08/18 13:30:27;;;;;;;3.92;0.90;;;31.80;84.50;;;;;;4996417;28;20081;-81
2022/08/18 13:33:13;;;;;;;3.35;0.82;;;32.10;83.00;;;;;;4992844;28;20058;-81
2022/08/18 13:35:59;;;;;;;4.15;0.85;;;31.50;84.20;;;;;;5010584;28;20054;-81
2022/08/18 13:38:46;;;;;;;3.40;1.13;;;31.30;85.50;;;;;;5010596;28;20042;-81
2022/08/18 13:41:37;;;;;;;4.25;1.20;;;30.90;85.10;;;;;;5340218;23;20142;-81
2022/08/18 13:44:23;;;;;;;4.97;1.35;;;30.30;86.40;;;;;;4971910;28;20050;-81
2022/08/18 13:47:09;;;;;;;4.95;1.30;;;30.00;86.50;;;;;;4972553;28;20058;-82
2022/08/18 13:49:55;;;;;;;4.40;1.50;;;29.50;86.80;;;;;;4976664;28;20043;-81
2022/08/18 13:52:43;;;;;;;3.03;0.98;;;29.20;88.60;;;;;;4975258;28;20058;-81
2022/08/18 13:55:29;;;;;;;3.03;0.90;;;28.80;89.50;;;;;;4957982;28;20190;-81
2022/08/18 13:58:16;;;;;;;2.60;0.90;;;28.50;88.40;;;;;;4975659;28;20415;-79
2022/08/18 14:01:08;;;;;;;3.30;0.70;;;29.00;90.10;;;;;;4975099;28;20050;-80
2022/08/18 14:03:54;;;;;;;5.05;1.00;;;29.50;88.40;;;;;;4956702;28;20050;-81
2022/08/18 14:06:41;;;;;;;2.00;0.90;;;29.60;88.40;;;;;;4957673;28;20487;-81
2022/08/18 14:09:28;;;;;;;3.70;1.08;;;29.70;88.20;;;;;;4974604;28;20497;-81
2022/08/18 14:12:20;;;;;;;3.88;0.98;;;29.70;86.30;;;;;;4974258;28;20086;-80
2022/08/18 14:15:10;;;;;;;4.25;1.33;;;30.20;84.50;;;;;;4976138;28;20043;-80
2022/08/18 14:17:57;;;;;;;4.25;1.02;;;31.70;83.90;;;;;;4958974;28;20105;-82
2022/08/18 14:26:52;;;;;;;4.13;1.08;;;34.30;74.30;;;;;;4974790;28;20086;-81
2022/08/18 14:29:41;;;;;;;5.78;1.35;;;35.30;73.90;;;;;;4956584;28;20069;-80
2022/08/18 14:32:30;;;;;;;2.80;1.05;;;35.90;70.00;;;;;;4974780;28;20043;-80
2022/08/18 14:35:18;;;;;;;7.18;1.63;;;36.10;68.60;;;;;;4972903;28;20050;-80
2022/08/18 14:38:06;;;;;;;3.13;1.00;;;36.50;65.00;;;;;;4957278;28;20157;-80
2022/08/18 14:40:56;;;;;;;2.45;0.90;;;36.90;64.40;;;;;;4974039;28;20484;-80
2022/08/18 14:43:44;;;;;;;5.32;1.38;;;37.00;62.00;;;;;;4973121;28;20057;-80
2022/08/18 14:46:30;;;;;;;3.28;1.02;;;37.60;61.00;;;;;;4972462;28;20053;-82
2022/08/18 14:49:16;;;;;;;7.03;1.52;;;37.60;59.40;;;;;;4972454;28;20061;-82
2022/08/18 14:55:51;;;;;;;6.70;1.02;;;37.60;58.60;;;;;;4973111;28;20062;-80
2022/08/18 14:58:39;;;;;;;4.22;0.80;;;37.70;57.30;;;;;;4973006;28;20089;-80
2022/08/18 15:01:25;;;;;;;4.13;1.20;;;37.90;57.90;;;;;;4973659;28;20051;-81
2022/08/18 15:04:13;;;;;;;2.60;0.93;;;37.60;56.00;;;;;;4957952;28;20499;-81
2022/08/18 15:06:59;;;;;;;4.57;1.30;;;37.70;56.00;;;;;;4958689;28;20106;-81
2022/08/18 15:09:46;;;;;;;4.72;1.20;;;38.00;55.80;;;;;;4973240;28;20047;-81
2022/08/18 15:12:32;;;;;;;3.05;0.82;;;38.20;55.90;;;;;;4973783;28;20133;-80
2022/08/18 15:15:18;;;;;;;5.13;1.10;;;38.50;54.40;;;;;;4972917;28;20098;-80
2022/08/18 15:18:06;;;;;;;5.78;1.50;;;38.30;54.10;;;;;;4972527;28;20047;-81
2022/08/18 15:27:11;;;;;;;3.28;0.90;;;38.10;53.30;;;;;;4974601;28;20055;-81